createdAt,value
2018-03-01T00:00:04.877Z,-5.22
2018-03-01T00:02:33.221Z,-5.19
2018-03-01T00:05:01.565Z,-5.19
2018-03-01T00:07:29.879Z,-5.14
2018-03-01T00:09:58.221Z,-5.14
2018-03-01T00:12:26.561Z,-5.18
2018-03-01T00:14:55.648Z,-5.18
2018-03-01T00:17:24.746Z,-5.18
2018-03-01T00:19:53.073Z,-5.13
2018-03-01T00:22:37.299Z,-5.12
2018-03-01T00:25:05.625Z,-5.14
2018-03-01T00:27:33.967Z,-5.14
2018-03-01T00:30:02.267Z,-5.05
2018-03-01T00:32:30.589Z,-5.10
2018-03-01T00:34:59.699Z,-5.09
2018-03-01T00:37:28.780Z,-5.08
2018-03-01T00:39:57.131Z,-5.01
2018-03-01T00:42:25.457Z,-4.99
2018-03-01T00:44:54.573Z,-5.02
2018-03-01T00:47:22.877Z,-5.06
2018-03-01T00:49:51.181Z,-5.06
2018-03-01T00:52:19.519Z,-5.04
2018-03-01T00:54:47.831Z,-4.97
2018-03-01T00:57:16.169Z,-4.97
2018-03-01T00:59:44.494Z,-4.97
2018-03-01T01:02:12.825Z,-4.97
2018-03-01T01:04:41.152Z,-4.96
2018-03-01T01:07:09.468Z,-4.95
2018-03-01T01:09:38.549Z,-4.97
2018-03-01T01:12:06.853Z,-4.95
2018-03-01T01:14:35.939Z,-4.90
2018-03-01T01:17:04.263Z,-4.92
2018-03-01T01:19:32.579Z,-4.87
2018-03-01T01:22:00.909Z,-4.82
2018-03-01T01:24:29.240Z,-4.84
2018-03-01T01:26:57.562Z,-4.83
2018-03-01T01:29:26.674Z,-4.83
2018-03-01T01:31:54.987Z,-4.82
2018-03-01T01:34:23.311Z,-4.83
2018-03-01T01:36:52.410Z,-4.83
2018-03-01T01:39:21.502Z,-4.80
2018-03-01T01:41:50.605Z,-4.85
2018-03-01T01:46:54.101Z,-4.83
2018-03-01T01:49:22.429Z,-4.82
2018-03-01T01:51:50.768Z,-4.84
2018-03-01T01:54:19.856Z,-4.80
2018-03-01T01:56:48.187Z,-4.81
2018-03-01T01:59:16.514Z,-4.81
2018-03-01T02:01:44.830Z,-4.80
2018-03-01T02:04:13.157Z,-4.80
2018-03-01T02:06:41.477Z,-4.82
2018-03-01T02:09:10.619Z,-4.80
2018-03-01T02:11:38.964Z,-4.75
2018-03-01T02:14:08.068Z,-4.74
2018-03-01T02:16:36.464Z,-4.73
2018-03-01T02:19:04.776Z,-4.70
2018-03-01T02:21:33.095Z,-4.73
2018-03-01T02:24:02.202Z,-4.66
2018-03-01T02:26:31.299Z,-4.66
2018-03-01T02:29:00.386Z,-4.65
2018-03-01T02:31:29.472Z,-4.67
2018-03-01T02:33:57.799Z,-4.68
2018-03-01T02:36:34.039Z,-4.64
2018-03-01T02:39:03.131Z,-4.60
2018-03-01T02:41:32.243Z,-4.65
2018-03-01T02:44:00.564Z,-4.63
2018-03-01T02:46:29.671Z,-4.60
2018-03-01T02:48:58.005Z,-4.61
2018-03-01T02:51:26.311Z,-4.58
2018-03-01T02:53:54.650Z,-4.65
2018-03-01T02:56:23.748Z,-4.66
2018-03-01T02:58:52.848Z,-4.62
2018-03-01T03:01:21.951Z,-4.66
2018-03-01T03:03:50.289Z,-4.64
2018-03-01T03:06:18.648Z,-4.65
2018-03-01T03:08:46.976Z,-4.65
2018-03-01T03:11:16.038Z,-4.64
2018-03-01T03:13:44.390Z,-4.63
2018-03-01T03:16:12.737Z,-4.64
2018-03-01T03:18:41.836Z,-4.61
2018-03-01T03:21:10.920Z,-4.62
2018-03-01T03:23:39.290Z,-4.59
2018-03-01T03:26:07.646Z,-4.60
2018-03-01T03:28:35.978Z,-4.60
2018-03-01T03:31:05.047Z,-4.56
2018-03-01T03:33:33.364Z,-4.49
2018-03-01T03:36:01.701Z,-4.50
2018-03-01T03:38:30.026Z,-4.49
2018-03-01T03:40:58.340Z,-4.48
2018-03-01T03:43:26.645Z,-4.42
2018-03-01T03:45:54.965Z,-4.39
2018-03-01T03:48:23.279Z,-4.38
2018-03-01T03:50:51.585Z,-4.36
2018-03-01T03:53:19.922Z,-4.33
2018-03-01T03:55:48.240Z,-4.29
2018-03-01T03:58:16.559Z,-4.29
2018-03-01T04:00:44.959Z,-4.20
2018-03-01T04:03:13.299Z,-4.20
2018-03-01T04:05:42.519Z,-4.15
2018-03-01T04:08:10.901Z,-4.11
2018-03-01T04:10:39.994Z,-4.17
2018-03-01T04:13:09.082Z,-4.14
2018-03-01T04:15:38.194Z,-4.16
2018-03-01T04:18:07.304Z,-4.12
2018-03-01T04:20:35.636Z,-4.09
2018-03-01T04:23:04.721Z,-4.10
2018-03-01T04:25:33.825Z,-4.08
2018-03-01T04:28:02.141Z,-4.08
2018-03-01T04:30:31.262Z,-4.03
2018-03-01T04:32:59.675Z,-4.00
2018-03-01T04:35:27.985Z,-3.95
2018-03-01T04:37:57.103Z,-3.99
2018-03-01T04:40:26.203Z,-3.93
2018-03-01T04:42:55.306Z,-3.91
2018-03-01T04:45:25.297Z,-3.89
2018-03-01T04:47:53.625Z,-3.89
2018-03-01T04:50:21.962Z,-3.84
2018-03-01T04:52:50.281Z,-3.83
2018-03-01T04:55:18.602Z,-3.79
2018-03-01T04:57:46.938Z,-3.78
2018-03-01T05:00:15.334Z,-3.73
2018-03-01T05:02:43.669Z,-3.76
2018-03-01T05:05:11.994Z,-3.74
2018-03-01T05:07:40.315Z,-3.75
2018-03-01T05:10:08.718Z,-3.74
2018-03-01T05:12:37.786Z,-3.72
2018-03-01T05:15:06.119Z,-3.75
2018-03-01T05:17:34.549Z,-3.77
2018-03-01T05:20:02.863Z,-3.76
2018-03-01T05:22:31.185Z,-3.74
2018-03-01T05:24:59.554Z,-3.70
2018-03-01T05:27:27.931Z,-3.71
2018-03-01T05:29:56.316Z,-3.73
2018-03-01T05:32:24.909Z,-3.73
2018-03-01T05:34:53.709Z,-3.67
2018-03-01T05:37:22.181Z,-3.66
2018-03-01T05:39:50.518Z,-3.67
2018-03-01T05:42:18.829Z,-3.66
2018-03-01T05:44:47.262Z,-3.68
2018-03-01T05:47:15.569Z,-3.63
2018-03-01T05:49:43.888Z,-3.67
2018-03-01T05:52:12.225Z,-3.67
2018-03-01T05:54:41.322Z,-3.70
2018-03-01T05:57:10.400Z,-3.71
2018-03-01T05:59:38.737Z,-3.67
2018-03-01T06:02:07.075Z,-3.70
2018-03-01T06:04:35.393Z,-3.66
2018-03-01T06:07:03.697Z,-3.59
2018-03-01T06:09:32.062Z,-3.60
2018-03-01T06:12:00.384Z,-3.59
2018-03-01T06:14:28.727Z,-3.55
2018-03-01T06:16:57.059Z,-3.51
2018-03-01T06:19:26.170Z,-3.49
2018-03-01T06:21:55.276Z,-3.50
2018-03-01T06:24:23.579Z,-3.44
2018-03-01T06:26:51.898Z,-3.43
2018-03-01T06:29:20.354Z,-3.40
2018-03-01T06:31:48.676Z,-3.38
2018-03-01T06:34:16.996Z,-3.36
2018-03-01T06:36:45.338Z,-3.34
2018-03-01T06:39:13.646Z,-3.32
2018-03-01T06:41:41.987Z,-3.31
2018-03-01T06:44:10.302Z,-3.30
2018-03-01T06:46:38.642Z,-3.24
2018-03-01T06:49:07.014Z,-3.21
2018-03-01T06:51:35.326Z,-3.12
2018-03-01T06:54:04.432Z,-3.09
2018-03-01T06:56:33.507Z,-3.01
2018-03-01T06:59:02.629Z,-2.97
2018-03-01T07:01:31.606Z,-2.89
2018-03-01T07:04:00.691Z,-2.87
2018-03-01T07:06:29.007Z,-2.81
2018-03-01T07:08:57.357Z,-2.77
2018-03-01T07:11:26.595Z,-2.70
2018-03-01T07:13:54.965Z,-2.61
2018-03-01T07:16:24.059Z,-2.49
2018-03-01T07:18:53.164Z,-2.42
2018-03-01T07:21:21.503Z,-2.34
2018-03-01T07:23:49.846Z,-2.22
2018-03-01T07:26:18.225Z,-2.14
2018-03-01T07:28:46.563Z,-1.95
2018-03-01T07:31:15.670Z,-1.85
2018-03-01T07:33:44.753Z,-1.69
2018-03-01T07:36:13.860Z,-1.53
2018-03-01T07:38:42.999Z,-1.44
2018-03-01T07:41:11.383Z,-1.30
2018-03-01T07:43:39.704Z,-1.19
2018-03-01T07:46:08.064Z,-1.03
2018-03-01T07:48:36.522Z,-0.86
2018-03-01T07:51:04.895Z,-0.67
2018-03-01T07:53:33.935Z,-0.48
2018-03-01T07:56:02.274Z,-0.28
2018-03-01T07:58:30.676Z,-0.15
2018-03-01T08:00:59.012Z,0.07
2018-03-01T08:03:28.215Z,0.15
2018-03-01T08:05:56.556Z,0.24
2018-03-01T08:08:24.892Z,0.46
2018-03-01T08:10:53.222Z,0.57
2018-03-01T08:13:21.543Z,0.68
2018-03-01T08:15:50.871Z,0.78
2018-03-01T08:18:19.203Z,0.81
2018-03-01T08:20:47.516Z,1.01
2018-03-01T08:23:15.838Z,1.04
2018-03-01T08:25:44.198Z,0.98
2018-03-01T08:28:12.521Z,0.95
2018-03-01T08:30:41.616Z,1.07
2018-03-01T08:33:10.831Z,1.22
2018-03-01T08:35:39.944Z,1.22
2018-03-01T08:38:09.048Z,1.34
2018-03-01T08:40:37.384Z,1.45
2018-03-01T08:43:05.740Z,1.49
2018-03-01T08:45:34.065Z,1.48
2018-03-01T08:48:03.156Z,1.37
2018-03-01T08:50:31.492Z,1.37
2018-03-01T08:52:59.816Z,1.55
2018-03-01T08:55:28.150Z,1.65
2018-03-01T08:57:56.470Z,1.81
2018-03-01T09:00:24.778Z,1.92
2018-03-01T09:02:53.857Z,2.04
2018-03-01T09:05:22.952Z,2.13
2018-03-01T09:07:51.400Z,2.22
2018-03-01T09:10:19.722Z,2.34
2018-03-01T09:12:48.831Z,2.53
2018-03-01T09:15:17.936Z,2.59
2018-03-01T09:17:47.012Z,2.83
2018-03-01T09:20:15.342Z,3.10
2018-03-01T09:22:43.676Z,3.28
2018-03-01T09:25:12.805Z,3.32
2018-03-01T09:27:41.865Z,3.39
2018-03-01T09:30:10.177Z,3.35
2018-03-01T09:32:38.500Z,3.40
2018-03-01T09:35:06.816Z,3.35
2018-03-01T09:37:35.122Z,3.26
2018-03-01T09:40:03.430Z,3.18
2018-03-01T09:42:31.796Z,3.20
2018-03-01T09:45:00.124Z,3.19
2018-03-01T09:47:28.462Z,3.08
2018-03-01T09:49:56.794Z,3.11
2018-03-01T09:52:25.106Z,3.20
2018-03-01T09:54:53.449Z,3.40
2018-03-01T09:57:21.806Z,3.61
2018-03-01T09:59:50.150Z,3.75
2018-03-01T10:02:18.457Z,3.97
2018-03-01T10:04:46.802Z,4.15
2018-03-01T10:07:15.203Z,4.29
2018-03-01T10:09:43.452Z,4.47
2018-03-01T10:12:12.554Z,4.61
2018-03-01T10:14:41.036Z,4.67
2018-03-01T10:17:10.209Z,4.62
2018-03-01T10:19:38.842Z,4.60
2018-03-01T10:22:07.239Z,4.77
2018-03-01T10:24:35.564Z,4.88
2018-03-01T10:27:03.912Z,4.73
2018-03-01T10:29:32.239Z,4.81
2018-03-01T10:32:01.309Z,4.83
2018-03-01T10:34:29.693Z,4.83
2018-03-01T10:36:58.017Z,4.98
2018-03-01T10:39:26.340Z,5.00
2018-03-01T10:41:54.898Z,5.07
2018-03-01T10:44:23.227Z,5.17
2018-03-01T10:46:51.570Z,5.21
2018-03-01T10:49:19.879Z,5.37
2018-03-01T10:51:50.586Z,5.26
2018-03-01T10:54:18.962Z,5.30
2018-03-01T10:56:47.269Z,5.38
2018-03-01T10:59:15.589Z,5.43
2018-03-01T11:01:50.074Z,5.66
2018-03-01T11:04:18.413Z,5.72
2018-03-01T11:06:46.722Z,5.90
2018-03-01T11:09:15.284Z,6.19
2018-03-01T11:11:43.663Z,6.36
2018-03-01T11:14:12.010Z,6.47
2018-03-01T11:16:40.292Z,6.65
2018-03-01T11:19:09.371Z,6.90
2018-03-01T11:21:40.835Z,7.18
2018-03-01T11:24:09.388Z,7.37
2018-03-01T11:26:37.724Z,7.59
2018-03-01T11:29:06.036Z,7.54
2018-03-01T11:31:34.385Z,7.77
2018-03-01T11:34:02.716Z,7.92
2018-03-01T11:36:31.039Z,8.06
2018-03-01T11:38:59.370Z,8.20
2018-03-01T11:41:27.688Z,8.04
2018-03-01T11:43:57.502Z,7.96
2018-03-01T11:46:26.598Z,7.96
2018-03-01T11:48:55.678Z,7.99
2018-03-01T11:51:24.014Z,8.03
2018-03-01T11:53:52.354Z,8.16
2018-03-01T11:56:21.466Z,8.31
2018-03-01T11:58:50.548Z,8.42
2018-03-01T12:01:18.878Z,8.56
2018-03-01T12:03:47.167Z,8.59
2018-03-01T12:06:15.499Z,8.76
2018-03-01T12:08:43.865Z,8.91
2018-03-01T12:11:12.974Z,9.13
2018-03-01T12:13:41.396Z,9.02
2018-03-01T12:16:09.752Z,8.86
2018-03-01T12:18:38.081Z,8.81
2018-03-01T12:21:06.409Z,8.71
2018-03-01T12:23:35.558Z,8.76
2018-03-01T12:26:03.875Z,8.92
2018-03-01T12:28:33.047Z,9.11
2018-03-01T12:31:01.436Z,9.12
2018-03-01T12:33:30.540Z,9.14
2018-03-01T12:35:58.838Z,9.10
2018-03-01T12:38:27.923Z,8.86
2018-03-01T12:40:57.022Z,8.70
2018-03-01T12:43:25.429Z,8.65
2018-03-01T12:45:54.500Z,8.60
2018-03-01T12:48:22.872Z,8.74
2018-03-01T12:50:51.228Z,8.75
2018-03-01T12:53:19.543Z,8.69
2018-03-01T12:55:47.984Z,8.81
2018-03-01T12:58:16.300Z,8.88
2018-03-01T13:00:46.115Z,8.91
2018-03-01T13:03:15.193Z,8.96
2018-03-01T13:05:43.520Z,8.94
2018-03-01T13:08:12.592Z,8.95
2018-03-01T13:10:41.872Z,9.05
2018-03-01T13:13:10.185Z,9.44
2018-03-01T13:15:38.509Z,9.68
2018-03-01T13:18:06.833Z,9.89
2018-03-01T13:20:35.165Z,9.96
2018-03-01T13:23:03.476Z,10.02
2018-03-01T13:25:31.801Z,10.18
2018-03-01T13:28:00.888Z,10.52
2018-03-01T13:33:54.845Z,10.71
2018-03-01T13:36:23.173Z,10.56
2018-03-01T13:38:51.496Z,10.36
2018-03-01T13:41:19.890Z,10.21
2018-03-01T13:43:48.221Z,10.00
2018-03-01T13:46:34.224Z,9.73
2018-03-01T13:49:02.770Z,9.67
2018-03-01T13:51:31.081Z,9.68
2018-03-01T13:53:59.468Z,9.81
2018-03-01T13:56:27.777Z,9.89
2018-03-01T13:58:56.068Z,9.90
2018-03-01T14:01:24.389Z,9.94
2018-03-01T14:03:52.739Z,10.15
2018-03-01T14:06:22.609Z,10.26
2018-03-01T14:08:51.799Z,10.47
2018-03-01T14:11:20.164Z,10.70
2018-03-01T14:13:48.613Z,10.84
2018-03-01T14:16:17.722Z,10.85
2018-03-01T14:18:51.697Z,10.80
2018-03-01T14:24:36.145Z,11.07
2018-03-01T14:30:13.199Z,11.55
2018-03-01T14:32:41.518Z,11.19
2018-03-01T14:35:09.925Z,10.85
2018-03-01T14:37:38.325Z,10.66
2018-03-01T14:42:41.387Z,10.37
2018-03-01T14:45:11.199Z,10.69
2018-03-01T14:47:39.529Z,11.29
2018-03-01T14:50:07.832Z,11.70
2018-03-01T14:52:36.165Z,11.43
2018-03-01T14:55:05.263Z,11.48
2018-03-01T14:57:34.457Z,11.69
2018-03-01T15:00:02.801Z,11.58
2018-03-01T15:02:31.109Z,11.37
2018-03-01T15:04:59.447Z,10.82
2018-03-01T15:07:27.771Z,10.41
2018-03-01T15:09:56.090Z,10.10
2018-03-01T15:12:25.003Z,9.84
2018-03-01T15:14:53.317Z,9.50
2018-03-01T15:17:21.655Z,9.59
2018-03-01T15:19:49.972Z,9.63
2018-03-01T15:22:18.301Z,9.20
2018-03-01T15:24:46.612Z,9.05
2018-03-01T15:27:15.162Z,9.34
2018-03-01T15:29:43.510Z,9.68
2018-03-01T15:32:12.638Z,10.08
2018-03-01T15:34:40.956Z,10.10
2018-03-01T15:37:09.264Z,10.36
2018-03-01T15:39:37.570Z,10.10
2018-03-01T15:42:06.659Z,10.09
2018-03-01T15:44:35.753Z,10.26
2018-03-01T15:47:04.845Z,10.37
2018-03-01T15:49:33.168Z,10.70
2018-03-01T15:52:01.518Z,10.51
2018-03-01T15:54:30.636Z,10.67
2018-03-01T15:56:58.960Z,10.28
2018-03-01T15:59:27.263Z,9.75
2018-03-01T16:01:55.598Z,9.27
2018-03-01T16:04:23.943Z,8.84
2018-03-01T16:06:53.033Z,8.13
2018-03-01T16:09:22.168Z,7.59
2018-03-01T16:11:50.470Z,7.17
2018-03-01T16:14:18.805Z,6.58
2018-03-01T16:16:48.073Z,6.17
2018-03-01T16:19:16.417Z,5.71
2018-03-01T16:21:44.746Z,5.29
2018-03-01T16:24:13.937Z,4.96
2018-03-01T16:26:43.761Z,4.63
2018-03-01T16:29:12.845Z,4.30
2018-03-01T16:31:41.151Z,4.03
2018-03-01T16:34:09.474Z,3.82
2018-03-01T16:36:37.784Z,3.58
2018-03-01T16:39:06.096Z,3.33
2018-03-01T16:41:35.322Z,3.18
2018-03-01T16:44:03.660Z,3.06
2018-03-01T16:46:32.756Z,2.87
2018-03-01T16:49:01.284Z,2.63
2018-03-01T16:51:29.614Z,2.44
2018-03-01T16:53:58.040Z,2.30
2018-03-01T16:56:26.337Z,2.15
2018-03-01T16:58:54.674Z,2.01
2018-03-01T17:01:23.758Z,1.91
2018-03-01T17:03:52.069Z,1.80
2018-03-01T17:06:20.393Z,1.67
2018-03-01T17:08:48.710Z,1.59
2018-03-01T17:11:17.787Z,1.47
2018-03-01T17:13:46.120Z,1.37
2018-03-01T17:16:14.505Z,1.25
2018-03-01T17:18:42.816Z,1.14
2018-03-01T17:21:11.144Z,1.01
2018-03-01T17:23:39.492Z,0.94
2018-03-01T17:26:07.828Z,0.87
2018-03-01T17:28:36.182Z,0.85
2018-03-01T17:31:05.263Z,0.79
2018-03-01T17:33:34.349Z,0.72
2018-03-01T17:36:02.670Z,0.70
2018-03-01T17:38:30.989Z,0.66
2018-03-01T17:40:59.321Z,0.54
2018-03-01T17:43:28.473Z,0.50
2018-03-01T17:45:56.801Z,0.46
2018-03-01T17:48:25.161Z,0.35
2018-03-01T17:50:53.493Z,0.32
2018-03-01T17:53:21.814Z,0.30
2018-03-01T17:55:50.154Z,0.26
2018-03-01T17:58:18.471Z,0.18
2018-03-01T18:00:46.854Z,0.21
2018-03-01T18:03:20.992Z,0.11
2018-03-01T18:05:49.715Z,0.02
2018-03-01T18:08:18.043Z,-0.09
2018-03-01T18:10:46.369Z,-0.14
2018-03-01T18:13:14.730Z,-0.15
2018-03-01T18:15:43.813Z,-0.22
2018-03-01T18:18:12.970Z,-0.26
2018-03-01T18:20:42.126Z,-0.30
2018-03-01T18:23:10.446Z,-0.33
2018-03-01T18:25:38.779Z,-0.38
2018-03-01T18:28:07.870Z,-0.38
2018-03-01T18:30:36.967Z,-0.39
2018-03-01T18:33:06.158Z,-0.46
2018-03-01T18:35:34.487Z,-0.50
2018-03-01T18:38:03.663Z,-0.57
2018-03-01T18:40:32.761Z,-0.60
2018-03-01T18:43:01.115Z,-0.67
2018-03-01T18:45:30.959Z,-0.73
2018-03-01T18:47:59.563Z,-0.80
2018-03-01T18:50:27.867Z,-0.81
2018-03-01T18:52:56.201Z,-0.87
2018-03-01T18:55:25.297Z,-0.96
2018-03-01T18:57:54.425Z,-1.00
2018-03-01T19:00:22.754Z,-1.06
2018-03-01T19:02:51.125Z,-1.09
2018-03-01T19:05:19.578Z,-1.14
2018-03-01T19:07:47.888Z,-1.18
2018-03-01T19:10:16.201Z,-1.19
2018-03-01T19:12:45.329Z,-1.25
2018-03-01T19:15:13.685Z,-1.28
2018-03-01T19:17:42.230Z,-1.33
2018-03-01T19:20:10.590Z,-1.39
2018-03-01T19:22:38.955Z,-1.42
2018-03-01T19:25:07.276Z,-1.41
2018-03-01T19:27:35.601Z,-1.43
2018-03-01T19:30:03.951Z,-1.42
2018-03-01T19:32:33.055Z,-1.45
2018-03-01T19:35:02.201Z,-1.51
2018-03-01T19:37:30.521Z,-1.46
2018-03-01T19:39:58.871Z,-1.49
2018-03-01T19:42:27.212Z,-1.52
2018-03-01T19:44:56.335Z,-1.52
2018-03-01T19:47:24.662Z,-1.55
2018-03-01T19:49:53.093Z,-1.51
2018-03-01T19:52:21.540Z,-1.52
2018-03-01T19:54:49.869Z,-1.55
2018-03-01T19:57:18.258Z,-1.55
2018-03-01T19:59:46.577Z,-1.53
2018-03-01T20:02:15.734Z,-1.55
2018-03-01T20:04:44.077Z,-1.57
2018-03-01T20:07:13.286Z,-1.63
2018-03-01T20:09:41.687Z,-1.63
2018-03-01T20:12:10.176Z,-1.67
2018-03-01T20:14:38.507Z,-1.74
2018-03-01T20:17:06.853Z,-1.80
2018-03-01T20:19:35.177Z,-1.83
2018-03-01T20:22:04.259Z,-1.85
2018-03-01T20:24:34.100Z,-1.84
2018-03-01T20:27:03.176Z,-1.88
2018-03-01T20:29:31.501Z,-1.91
2018-03-01T20:31:59.814Z,-1.95
2018-03-01T20:34:28.139Z,-1.95
2018-03-01T20:36:57.231Z,-2.00
2018-03-01T20:39:26.332Z,-2.03
2018-03-01T20:41:55.421Z,-2.12
2018-03-01T20:44:24.503Z,-2.12
2018-03-01T20:46:52.830Z,-2.14
2018-03-01T20:49:21.143Z,-2.12
2018-03-01T20:51:49.452Z,-2.13
2018-03-01T20:54:18.530Z,-2.21
2018-03-01T20:56:46.857Z,-2.23
2018-03-01T20:59:15.181Z,-2.24
2018-03-01T21:01:43.545Z,-2.24
2018-03-01T21:04:11.859Z,-2.26
2018-03-01T21:06:40.996Z,-2.31
2018-03-01T21:09:09.329Z,-2.29
2018-03-01T21:11:37.640Z,-2.26
2018-03-01T21:14:06.720Z,-2.32
2018-03-01T21:16:36.072Z,-2.36
2018-03-01T21:19:04.389Z,-2.36
2018-03-01T21:21:32.745Z,-2.32
2018-03-01T21:24:01.158Z,-2.30
2018-03-01T21:26:30.977Z,-2.33
2018-03-01T21:29:00.073Z,-2.36
2018-03-01T21:31:28.415Z,-2.37
2018-03-01T21:33:56.743Z,-2.44
2018-03-01T21:36:25.245Z,-2.46
2018-03-01T21:38:53.570Z,-2.43
2018-03-01T21:41:21.892Z,-2.42
2018-03-01T21:43:50.261Z,-2.39
2018-03-01T21:46:18.573Z,-2.44
2018-03-01T21:48:47.639Z,-2.44
2018-03-01T21:51:15.954Z,-2.48
2018-03-01T21:53:44.385Z,-2.54
2018-03-01T21:56:12.865Z,-2.56
2018-03-01T21:58:41.198Z,-2.60
2018-03-01T22:01:11.926Z,-2.63
2018-03-01T22:03:41.054Z,-2.64
2018-03-01T22:06:09.375Z,-2.65
2018-03-01T22:08:37.709Z,-2.68
2018-03-01T22:11:06.021Z,-2.70
2018-03-01T22:13:34.373Z,-2.74
2018-03-01T22:16:02.713Z,-2.70
2018-03-01T22:18:31.032Z,-2.72
2018-03-01T22:20:59.378Z,-2.73
2018-03-01T22:23:28.483Z,-2.77
2018-03-01T22:25:57.605Z,-2.75
2018-03-01T22:28:25.953Z,-2.78
2018-03-01T22:30:55.071Z,-2.79
2018-03-01T22:33:24.235Z,-2.80
2018-03-01T22:35:52.583Z,-2.81
2018-03-01T22:38:20.891Z,-2.83
2018-03-01T22:40:49.950Z,-2.79
2018-03-01T22:43:18.252Z,-2.82
2018-03-01T22:45:46.763Z,-2.81
2018-03-01T22:48:15.079Z,-2.84
2018-03-01T22:50:43.429Z,-2.88
2018-03-01T22:53:11.765Z,-2.94
2018-03-01T22:55:40.420Z,-2.94
2018-03-01T22:58:09.520Z,-2.94
2018-03-01T23:00:54.414Z,-2.95
2018-03-01T23:03:22.732Z,-2.97
2018-03-01T23:05:51.869Z,-2.96
2018-03-01T23:08:20.205Z,-2.99
2018-03-01T23:10:48.532Z,-2.90
2018-03-01T23:13:16.839Z,-2.93
2018-03-01T23:15:45.169Z,-2.93
2018-03-01T23:18:14.253Z,-2.97
2018-03-01T23:20:43.356Z,-2.96
2018-03-01T23:23:12.456Z,-2.97
2018-03-01T23:25:41.575Z,-3.03
2018-03-01T23:28:09.915Z,-3.03
2018-03-01T23:30:38.240Z,-2.98
2018-03-01T23:33:06.553Z,-3.02
2018-03-01T23:35:34.877Z,-3.03
2018-03-01T23:38:03.947Z,-3.03
2018-03-01T23:40:32.274Z,-3.07
2018-03-01T23:43:00.863Z,-3.09
2018-03-01T23:45:29.178Z,-3.07
2018-03-01T23:47:57.483Z,-3.09
2018-03-01T23:50:25.820Z,-3.11
2018-03-01T23:52:54.132Z,-3.14
2018-03-01T23:55:22.519Z,-3.08
2018-03-01T23:57:50.836Z,-3.08
